createdAt,value
2024-04-18T00:06:26.573Z,-2.34
2024-04-18T00:16:29.790Z,-2.39
2024-04-18T00:26:33.748Z,-2.35
2024-04-18T00:36:36.964Z,-2.20
2024-04-18T00:46:40.866Z,-1.87
2024-04-18T00:56:45.780Z,-1.53
2024-04-18T01:06:49.376Z,-1.27
2024-04-18T01:16:52.477Z,-1.12
2024-04-18T01:26:55.812Z,-1.17
2024-04-18T01:36:59.164Z,-1.42
2024-04-18T01:47:02.336Z,-1.63
2024-04-18T01:57:06.770Z,-1.82
2024-04-18T02:07:10.304Z,-2.02
2024-04-18T02:17:13.488Z,-2.22
2024-04-18T02:27:16.887Z,-2.39
2024-04-18T02:37:20.891Z,-2.42
2024-04-18T02:47:26.172Z,-2.25
2024-04-18T02:57:29.618Z,-1.98
2024-04-18T03:07:33.013Z,-1.72
2024-04-18T03:17:36.652Z,-1.53
2024-04-18T03:27:40.348Z,-1.43
2024-04-18T03:37:43.611Z,-1.31
2024-04-18T03:47:51.713Z,-1.18
2024-04-18T03:57:55.387Z,-1.02
2024-04-18T04:08:00.801Z,-0.83
2024-04-18T04:18:05.400Z,-0.60
2024-04-18T04:28:08.620Z,-0.24
2024-04-18T04:38:12.030Z,0.15
2024-04-18T04:48:17.383Z,0.42
2024-04-18T04:58:21.193Z,0.68
2024-04-18T05:08:24.599Z,1.14
2024-04-18T05:18:28.152Z,1.66
2024-04-18T05:28:41.459Z,1.80
2024-04-18T05:38:44.764Z,2.09
2024-04-18T05:48:48.529Z,2.47
2024-04-18T05:58:52.127Z,3.97
2024-04-18T06:08:56.032Z,8.80
2024-04-18T06:18:59.470Z,9.08
2024-04-18T06:29:03.234Z,8.21
2024-04-18T06:39:07.517Z,8.02
2024-04-18T06:49:10.913Z,7.63
2024-04-18T06:59:14.111Z,6.72
2024-04-18T07:09:17.472Z,7.20
2024-04-18T07:19:20.583Z,16.19
2024-04-18T07:29:23.811Z,24.21
2024-04-18T07:39:29.726Z,25.92
2024-04-18T07:49:32.934Z,22.08
2024-04-18T07:59:36.619Z,22.87
2024-04-18T08:09:44.113Z,22.69
2024-04-18T08:19:49.552Z,25.48
2024-04-18T08:29:52.698Z,23.18
2024-04-18T08:39:56.130Z,18.46
2024-04-18T08:49:59.332Z,15.11
2024-04-18T09:00:04.194Z,12.86
2024-04-18T09:10:09.969Z,12.05
2024-04-18T09:20:13.394Z,12.36
2024-04-18T09:30:17.035Z,12.24
2024-04-18T09:40:24.633Z,11.67
2024-04-18T09:50:28.710Z,10.87
2024-04-18T10:00:32.048Z,11.02
2024-04-18T10:10:36.877Z,11.12
2024-04-18T10:20:44.329Z,11.44
2024-04-18T10:30:48.068Z,11.14
2024-04-18T10:41:04.146Z,10.57
2024-04-18T10:51:08.761Z,10.39
2024-04-18T11:01:17.775Z,10.86
2024-04-18T11:11:26.734Z,11.23
2024-04-18T11:21:31.005Z,10.98
2024-04-18T11:31:34.743Z,10.33
2024-04-18T11:41:38.424Z,10.16
2024-04-18T11:51:41.613Z,9.57
2024-04-18T12:01:44.989Z,8.93
2024-04-18T12:11:48.411Z,9.13
2024-04-18T12:21:51.614Z,9.37
2024-04-18T12:31:55.208Z,9.68
2024-04-18T12:41:58.869Z,9.54
2024-04-18T12:52:02.426Z,9.64
2024-04-18T13:02:05.893Z,10.05
2024-04-18T13:12:09.666Z,9.81
2024-04-18T13:22:14.425Z,9.30
2024-04-18T13:32:17.675Z,9.24
2024-04-18T13:42:20.948Z,9.25
2024-04-18T13:52:24.333Z,9.39
2024-04-18T14:02:27.590Z,9.64
2024-04-18T14:12:31.004Z,9.97
2024-04-18T14:22:34.235Z,10.07
2024-04-18T14:32:37.767Z,9.72
2024-04-18T14:42:41.828Z,9.15
2024-04-18T14:52:51.370Z,8.87
2024-04-18T15:02:54.635Z,8.57
2024-04-18T15:12:57.923Z,8.47
2024-04-18T15:23:01.112Z,8.35
2024-04-18T15:33:05.306Z,8.08
2024-04-18T15:43:08.627Z,7.93
2024-04-18T15:53:11.901Z,7.72
2024-04-18T16:03:15.419Z,7.66
2024-04-18T16:13:18.871Z,7.75
2024-04-18T16:23:24.104Z,7.80
2024-04-18T16:33:27.720Z,8.04
2024-04-18T16:43:32.891Z,7.94
2024-04-18T16:53:37.151Z,7.48
2024-04-18T17:03:40.494Z,6.94
2024-04-18T17:13:43.789Z,6.42
2024-04-18T17:23:46.943Z,6.06
2024-04-18T17:33:50.387Z,5.52
2024-04-18T17:43:53.965Z,5.02
2024-04-18T17:53:57.333Z,4.56
2024-04-18T18:04:00.810Z,4.13
2024-04-18T18:14:03.974Z,3.74
2024-04-18T18:24:08.449Z,3.50
2024-04-18T18:34:14.943Z,3.45
2024-04-18T18:44:18.386Z,3.45
2024-04-18T18:54:21.818Z,3.44
2024-04-18T19:04:25.702Z,3.38
2024-04-18T19:14:29.055Z,3.26
2024-04-18T19:24:32.302Z,3.19
2024-04-18T19:34:37.836Z,3.26
2024-04-18T19:44:41.717Z,3.33
2024-04-18T19:54:45.274Z,3.36
2024-04-18T20:04:48.999Z,3.35
2024-04-18T20:14:54.707Z,3.29
2024-04-18T20:24:57.888Z,3.19
2024-04-18T20:35:01.673Z,3.12
2024-04-18T20:45:06.846Z,3.14
2024-04-18T20:55:10.376Z,3.16
2024-04-18T21:05:13.847Z,3.16
2024-04-18T21:15:20.424Z,3.12
2024-04-18T21:25:23.666Z,2.97
2024-04-18T21:35:27.126Z,2.65
2024-04-18T21:45:30.690Z,2.31
2024-04-18T21:55:34.176Z,1.95
2024-04-18T22:05:37.752Z,1.59
2024-04-18T22:15:41.419Z,1.22
2024-04-18T22:25:45.622Z,0.89
2024-04-18T22:35:53.868Z,0.59
2024-04-18T22:45:57.385Z,0.30
2024-04-18T22:56:01.023Z,0.04
2024-04-18T23:06:05.411Z,-0.17
2024-04-18T23:16:08.701Z,-0.34
2024-04-18T23:26:11.919Z,-0.49
2024-04-18T23:36:15.176Z,-0.62
2024-04-18T23:46:19.075Z,-0.76
2024-04-18T23:56:22.549Z,-0.91
